Balsam Grove, NC (28708)

7:52 AM EST on December 22, 2014 (GMT -0500)
PARI Building 1 | Change Station
CLOSE
Current Station
Personal Weather Station
Location: Rosman, NC
Elevation: 2895 ft
Nearby Weather Stations

Elev 2895 ft 35.20 °N, 82.87 °W | Updated 6 minutes ago

Fog
Fog
38.6 °F
Feels Like 39 °F
N
0.0
Wind Variable Wind from ENE
Gusts 0.0 mph

Today
High -- | Low -- °F
--% Chance of Precip.
Yesterday
High -- | Low -- °F
Precip. -- in
7:36 AM 5:23 PM
New Moon, 0% visible
Pressure 30.08 in
Visibility 4.0 miles
Clouds Overcast 300 ft
Windchill 39 °F
Dew Point 38 °F
Humidity 97%
Rainfall 0.04 in
Snow Depth Not available.
UV 0 out of 12
Pollen .30 out of 12
Air Quality Not available.
Flu Activity Not available.
SPECI KAVL 221247Z AUTO 19007KT 4SM BR OVC003 04/03 A3008 RMK AO2 RAB25E34 P0000 T00390033

More Conditions Fewer Conditions

Pressure 30.08 in
Visibility 4.0 miles
Clouds Overcast 300 ft
Windchill 39 °F
Dew Point 38 °F
Humidity 97%
Rainfall 0.04 in
Snow Depth Not available.
UV 0 out of 12
Pollen .30 out of 12
Air Quality Not available.
Flu Activity Not available.
SPECI KAVL 221247Z AUTO 19007KT 4SM BR OVC003 04/03 A3008 RMK AO2 RAB25E34 P0000 T00390033

More Conditions Fewer Conditions

10-Day Weather Forecast

Almanac

Astronomy

Dec. 22, 2014 Rise Set
Actual Time
Civil Twilight
Nautical Twilight
Astronomical Twilight
Moon
Length of Visible Light
Length of Day
Tomorrow will be .
, % of the Moon is Illuminated

Today's Extremes

State Highs State Lows

Community

WunderPhotos

Upload Photos

1,779,598 photos uploaded!

WunderBlogs® & News

Nearby

Air Quality

  Air Quality AQ Index Pollutant
Not available.

Snow Depth

Station Depth Elevation

Earthquake Activity

City Distance Mag. Time & Date
Minimum magnitude displayed is 2.5.

Coastal Water Temperatures

Place Temperature

Nearby Weather Stations